KGTR/GTR METAR and TAF weather

Enter ICAO airport designator
Station Type Date Time Source
KGTR METAR 2019/12/16 06:07 UTC NOAA

KGTR 160607Z AUTO 15010KT 10SM SCT009 16/15 A2998 RMK AO2


Station Type Date Time Source
KGTR Decoded METAR 2019/12/16 06:07 UTC NOAA

Columbus/West Point/Starkville, Golden Triangle Regional Airport, MS, United States (KGTR) 33-27N 088-35W
Dec 16, 2019 - 01:07 AM EST / 2019.12.16 0607 UTC
Wind: from the SSE (150 degrees) at 12 MPH (10 KT):0
Visibility: 10 mile(s):0
Sky conditions: partly cloudy
Temperature: 60 F (16 C)
Dew Point: 59 F (15 C)
Relative Humidity: 93%
Pressure (altimeter): 29.98 in. Hg (1015 hPa)
ob: KGTR 160607Z AUTO 15010KT 10SM SCT009 16/15 A2998 RMK AO2
cycle: 6

Station Type Date Time Source
KGTR TAF 2019/12/16 06:46 UTC NOAA

TAF KGTR 160544Z 1606/1706 15014KT P6SM SKC
FM161400 18010G19KT P6SM VCSH BKN025
FM162200 19011G20KT P6SM VCTS BKN035CB
FM170400 27012G19KT 6SM -RA OVC015

Example: see airport list